FDX324 KBIL-KRNO
Flight info
| Callsign | FDX324 |
|---|---|
| Flight time | 1h 42m |
| Altitude | 34000 |
| Route | BIL KU90Q KU84O KU72K LLC ANAHO2 |
| Aircraft | A306/H-SDE3FGHIRWY/LB1 |
Departure
| Time | 2026-04-25 16:22 |
|---|---|
| Airport | Billings Logan International Airport (KBIL) |
Arrival
| Time | 2026-04-25 18:04 |
|---|---|
| Airport | Reno Tahoe International Airport (KRNO) |
| Time | Latitude | Longitude | Altitude | Speed | Heading |
|---|---|---|---|---|---|
| 2026-04-25 16:09 | 45.80540 | -108.54327 | 3569 ft | 0 kts | 13° |
| 2026-04-25 16:14 | 45.80545 | -108.54326 | 3569 ft | 3 kts | 12° |
| 2026-04-25 16:15 | 45.80571 | -108.54306 | 3560 ft | 5 kts | 46° |
| 2026-04-25 16:15 | 45.80590 | -108.54237 | 3567 ft | 10 kts | 82° |
| 2026-04-25 16:15 | 45.80585 | -108.54123 | 3562 ft | 12 kts | 118° |
| 2026-04-25 16:15 | 45.80538 | -108.54035 | 3567 ft | 10 kts | 117° |
| 2026-04-25 16:16 | 45.80547 | -108.53952 | 3566 ft | 8 kts | 65° |
| 2026-04-25 16:16 | 45.80570 | -108.53884 | 3565 ft | 7 kts | 63° |
| 2026-04-25 16:16 | 45.80592 | -108.53818 | 3563 ft | 8 kts | 70° |
| 2026-04-25 16:16 | 45.80586 | -108.53713 | 3564 ft | 14 kts | 103° |
| 2026-04-25 16:17 | 45.80548 | -108.53549 | 3564 ft | 20 kts | 114° |
| 2026-04-25 16:17 | 45.80495 | -108.53372 | 3563 ft | 18 kts | 109° |
| 2026-04-25 16:17 | 45.80478 | -108.53204 | 3563 ft | 16 kts | 91° |
| 2026-04-25 16:17 | 45.80473 | -108.53053 | 3563 ft | 14 kts | 102° |
| 2026-04-25 16:18 | 45.80443 | -108.52926 | 3562 ft | 13 kts | 110° |
| 2026-04-25 16:18 | 45.80433 | -108.52889 | 3559 ft | 12 kts | 111° |
| 2026-04-25 16:18 | 45.80385 | -108.52721 | 3560 ft | 11 kts | 112° |
| 2026-04-25 16:18 | 45.80354 | -108.52610 | 3560 ft | 14 kts | 112° |
| 2026-04-25 16:19 | 45.80311 | -108.52454 | 3559 ft | 19 kts | 112° |
| 2026-04-25 16:19 | 45.80257 | -108.52263 | 3558 ft | 20 kts | 112° |
| 2026-04-25 16:19 | 45.80204 | -108.52090 | 3555 ft | 18 kts | 117° |
| 2026-04-25 16:20 | 45.80119 | -108.51803 | 3555 ft | 12 kts | 107° |
| 2026-04-25 16:20 | 45.80132 | -108.51722 | 3554 ft | 5 kts | 47° |
| 2026-04-25 16:20 | 45.80197 | -108.51679 | 3554 ft | 8 kts | 9° |
| 2026-04-25 16:21 | 45.80234 | -108.51750 | 3555 ft | 15 kts | 291° |
| 2026-04-25 16:21 | 45.80325 | -108.52083 | 3559 ft | 68 kts | 292° |
| 2026-04-25 16:21 | 45.80587 | -108.53023 | 3562 ft | 133 kts | 291° |
| 2026-04-25 16:21 | 45.81012 | -108.54527 | 3635 ft | 188 kts | 291° |
| 2026-04-25 16:22 | 45.81505 | -108.56288 | 4572 ft | 192 kts | 285° |
| 2026-04-25 16:22 | 45.81566 | -108.58179 | 5539 ft | 200 kts | 255° |
| 2026-04-25 16:22 | 45.81100 | -108.60124 | 6003 ft | 218 kts | 249° |
| 2026-04-25 16:22 | 45.80506 | -108.62243 | 6455 ft | 238 kts | 245° |
| 2026-04-25 16:23 | 45.79637 | -108.64311 | 7193 ft | 246 kts | 239° |
| 2026-04-25 16:23 | 45.78634 | -108.66373 | 7867 ft | 258 kts | 237° |
| 2026-04-25 16:23 | 45.77540 | -108.68441 | 8558 ft | 267 kts | 234° |
| 2026-04-25 16:23 | 45.76351 | -108.70527 | 9354 ft | 271 kts | 233° |
| 2026-04-25 16:24 | 45.75127 | -108.72600 | 10137 ft | 274 kts | 232° |
| 2026-04-25 16:24 | 45.73857 | -108.74731 | 10655 ft | 288 kts | 232° |
| 2026-04-25 16:24 | 45.72531 | -108.76983 | 10980 ft | 305 kts | 233° |
| 2026-04-25 16:24 | 45.71139 | -108.79369 | 11417 ft | 316 kts | 233° |
| 2026-04-25 16:25 | 45.69742 | -108.81779 | 12029 ft | 320 kts | 233° |
| 2026-04-25 16:25 | 45.68777 | -108.83447 | 12504 ft | 321 kts | 233° |
| 2026-04-25 16:25 | 45.66877 | -108.86718 | 13366 ft | 324 kts | 233° |
| 2026-04-25 16:25 | 45.65432 | -108.89217 | 13966 ft | 327 kts | 233° |
| 2026-04-25 16:26 | 45.63975 | -108.91737 | 14564 ft | 329 kts | 233° |
| 2026-04-25 16:26 | 45.62506 | -108.94272 | 15116 ft | 333 kts | 233° |
| 2026-04-25 16:26 | 45.61019 | -108.96840 | 15706 ft | 335 kts | 233° |
| 2026-04-25 16:26 | 45.59544 | -108.99382 | 16266 ft | 337 kts | 233° |
| 2026-04-25 16:27 | 45.58030 | -109.01980 | 16813 ft | 340 kts | 233° |
| 2026-04-25 16:27 | 45.56508 | -109.04591 | 17335 ft | 343 kts | 233° |
| 2026-04-25 16:27 | 45.54974 | -109.07222 | 17857 ft | 345 kts | 233° |
| 2026-04-25 16:27 | 45.53439 | -109.09858 | 18361 ft | 349 kts | 233° |
| 2026-04-25 16:28 | 45.51878 | -109.12516 | 18871 ft | 351 kts | 233° |
| 2026-04-25 16:28 | 45.50306 | -109.15197 | 19329 ft | 353 kts | 233° |
| 2026-04-25 16:28 | 45.48732 | -109.17900 | 19800 ft | 357 kts | 233° |
| 2026-04-25 16:28 | 45.47139 | -109.20630 | 20295 ft | 359 kts | 233° |
| 2026-04-25 16:29 | 45.45550 | -109.23344 | 20759 ft | 361 kts | 233° |
| 2026-04-25 16:29 | 45.43926 | -109.26116 | 21209 ft | 364 kts | 233° |
| 2026-04-25 16:29 | 45.42294 | -109.28899 | 21776 ft | 367 kts | 233° |
| 2026-04-25 16:29 | 45.40647 | -109.31706 | 22347 ft | 371 kts | 233° |
| 2026-04-25 16:30 | 45.38982 | -109.34538 | 22880 ft | 374 kts | 233° |
| 2026-04-25 16:30 | 45.37317 | -109.37362 | 23460 ft | 377 kts | 233° |
| 2026-04-25 16:30 | 45.35621 | -109.40234 | 23972 ft | 380 kts | 233° |
| 2026-04-25 16:30 | 45.33912 | -109.43130 | 24463 ft | 384 kts | 233° |
| 2026-04-25 16:31 | 45.32183 | -109.46056 | 24952 ft | 386 kts | 233° |
| 2026-04-25 16:31 | 45.30448 | -109.48990 | 25405 ft | 389 kts | 233° |
| 2026-04-25 16:31 | 45.28728 | -109.51895 | 25980 ft | 387 kts | 233° |
| 2026-04-25 16:31 | 45.26995 | -109.54815 | 26685 ft | 383 kts | 233° |
| 2026-04-25 16:32 | 45.25284 | -109.57696 | 27341 ft | 380 kts | 233° |
| 2026-04-25 16:32 | 45.23602 | -109.60529 | 27952 ft | 377 kts | 233° |
| 2026-04-25 16:32 | 45.21915 | -109.63364 | 28548 ft | 374 kts | 233° |
| 2026-04-25 16:32 | 45.20240 | -109.66178 | 29123 ft | 372 kts | 233° |
| 2026-04-25 16:33 | 45.18569 | -109.68984 | 29683 ft | 370 kts | 233° |
| 2026-04-25 16:33 | 45.16930 | -109.71735 | 30241 ft | 367 kts | 233° |
| 2026-04-25 16:33 | 45.15286 | -109.74492 | 30800 ft | 365 kts | 233° |
| 2026-04-25 16:33 | 45.13646 | -109.77239 | 31280 ft | 365 kts | 233° |
| 2026-04-25 16:34 | 45.12000 | -109.79994 | 31748 ft | 364 kts | 233° |
| 2026-04-25 16:34 | 45.10364 | -109.82731 | 32227 ft | 363 kts | 233° |
| 2026-04-25 16:34 | 45.08752 | -109.85424 | 32688 ft | 363 kts | 233° |
| 2026-04-25 16:34 | 45.07121 | -109.88142 | 33147 ft | 361 kts | 233° |
| 2026-04-25 16:35 | 45.05493 | -109.90854 | 33578 ft | 361 kts | 232° |
| 2026-04-25 16:35 | 45.03865 | -109.93565 | 33923 ft | 362 kts | 232° |
| 2026-04-25 16:35 | 45.02227 | -109.96285 | 33994 ft | 363 kts | 232° |
| 2026-04-25 16:36 | 44.99163 | -110.01932 | 34001 ft | 365 kts | 238° |
| 2026-04-25 16:36 | 44.96312 | -110.08110 | 33996 ft | 385 kts | 239° |
| 2026-04-25 16:37 | 44.93390 | -110.14604 | 33989 ft | 402 kts | 239° |
| 2026-04-25 16:37 | 44.90325 | -110.21401 | 33980 ft | 417 kts | 239° |
| 2026-04-25 16:38 | 44.87172 | -110.28353 | 33963 ft | 420 kts | 239° |
| 2026-04-25 16:38 | 44.84034 | -110.35242 | 33971 ft | 420 kts | 239° |
| 2026-04-25 16:39 | 44.80872 | -110.42163 | 33963 ft | 420 kts | 239° |
| 2026-04-25 16:39 | 44.77703 | -110.49086 | 33952 ft | 419 kts | 239° |
| 2026-04-25 16:40 | 44.74556 | -110.55969 | 33954 ft | 420 kts | 239° |
| 2026-04-25 16:40 | 44.71386 | -110.62866 | 33954 ft | 419 kts | 239° |
| 2026-04-25 16:41 | 44.68230 | -110.69707 | 33951 ft | 420 kts | 239° |
| 2026-04-25 16:41 | 44.63456 | -110.80044 | 33935 ft | 419 kts | 239° |
| 2026-04-25 16:42 | 44.60269 | -110.86910 | 33947 ft | 419 kts | 239° |
| 2026-04-25 16:42 | 44.57095 | -110.93734 | 33935 ft | 419 kts | 239° |
| 2026-04-25 16:43 | 44.53904 | -111.00590 | 33946 ft | 419 kts | 239° |
| 2026-04-25 16:43 | 44.50706 | -111.07440 | 33934 ft | 419 kts | 239° |
| 2026-04-25 16:44 | 44.47525 | -111.14238 | 33948 ft | 420 kts | 239° |
| 2026-04-25 16:44 | 44.44314 | -111.21085 | 33943 ft | 419 kts | 239° |
| 2026-04-25 16:45 | 44.41121 | -111.27873 | 33951 ft | 419 kts | 238° |
| 2026-04-25 16:45 | 44.37917 | -111.34671 | 33956 ft | 418 kts | 238° |
| 2026-04-25 16:46 | 44.34700 | -111.41483 | 33963 ft | 418 kts | 238° |
| 2026-04-25 16:46 | 44.32572 | -111.45977 | 33961 ft | 418 kts | 238° |
| 2026-04-25 16:47 | 44.28297 | -111.54985 | 33969 ft | 417 kts | 238° |
| 2026-04-25 16:47 | 44.25110 | -111.61687 | 33971 ft | 417 kts | 238° |
| 2026-04-25 16:48 | 44.21890 | -111.68447 | 33969 ft | 416 kts | 238° |
| 2026-04-25 16:48 | 44.18689 | -111.75142 | 33972 ft | 416 kts | 238° |
| 2026-04-25 16:49 | 44.15475 | -111.81848 | 33970 ft | 416 kts | 238° |
| 2026-04-25 16:49 | 44.12273 | -111.88515 | 33976 ft | 415 kts | 238° |
| 2026-04-25 16:50 | 44.09065 | -111.95180 | 33974 ft | 415 kts | 238° |
| 2026-04-25 16:50 | 44.05851 | -112.01845 | 33973 ft | 414 kts | 238° |
| 2026-04-25 16:51 | 44.02647 | -112.08473 | 33981 ft | 415 kts | 238° |
| 2026-04-25 16:51 | 44.00490 | -112.12928 | 33979 ft | 415 kts | 238° |
| 2026-04-25 16:52 | 43.96207 | -112.21750 | 33981 ft | 415 kts | 238° |
| 2026-04-25 16:52 | 43.92976 | -112.28389 | 33978 ft | 415 kts | 238° |
| 2026-04-25 16:53 | 43.88129 | -112.38309 | 33966 ft | 414 kts | 238° |
| 2026-04-25 16:54 | 43.85432 | -112.43822 | 33970 ft | 415 kts | 238° |
| 2026-04-25 16:54 | 43.82187 | -112.50449 | 33980 ft | 415 kts | 238° |
| 2026-04-25 16:55 | 43.78934 | -112.57060 | 33979 ft | 415 kts | 238° |
| 2026-04-25 16:55 | 43.75706 | -112.63617 | 33976 ft | 414 kts | 238° |
| 2026-04-25 16:56 | 43.72444 | -112.70232 | 33973 ft | 414 kts | 238° |
| 2026-04-25 16:56 | 43.69191 | -112.76804 | 33977 ft | 415 kts | 238° |
| 2026-04-25 16:57 | 43.65947 | -112.83337 | 33980 ft | 415 kts | 238° |
| 2026-04-25 16:57 | 43.62683 | -112.89899 | 33974 ft | 415 kts | 238° |
| 2026-04-25 16:58 | 43.59393 | -112.96505 | 33968 ft | 415 kts | 238° |
| 2026-04-25 16:58 | 43.56136 | -113.03025 | 33968 ft | 415 kts | 238° |
| 2026-04-25 16:59 | 43.52845 | -113.09600 | 33973 ft | 416 kts | 238° |
| 2026-04-25 16:59 | 43.49570 | -113.16131 | 33970 ft | 416 kts | 238° |
| 2026-04-25 17:00 | 43.46268 | -113.22702 | 33965 ft | 416 kts | 238° |
| 2026-04-25 17:00 | 43.42989 | -113.29211 | 33965 ft | 416 kts | 238° |
| 2026-04-25 17:01 | 43.39675 | -113.35773 | 33970 ft | 417 kts | 237° |
| 2026-04-25 17:01 | 43.36358 | -113.42328 | 33964 ft | 417 kts | 237° |
| 2026-04-25 17:02 | 43.33030 | -113.48886 | 33970 ft | 417 kts | 237° |
| 2026-04-25 17:02 | 43.29734 | -113.55372 | 33959 ft | 417 kts | 237° |
| 2026-04-25 17:03 | 43.26404 | -113.61906 | 33963 ft | 417 kts | 237° |
| 2026-04-25 17:03 | 43.23074 | -113.68430 | 33959 ft | 417 kts | 237° |
| 2026-04-25 17:04 | 43.19737 | -113.74950 | 33961 ft | 416 kts | 237° |
| 2026-04-25 17:04 | 43.16420 | -113.81420 | 33964 ft | 416 kts | 237° |
| 2026-04-25 17:05 | 43.13082 | -113.87914 | 33964 ft | 415 kts | 237° |
| 2026-04-25 17:05 | 43.08098 | -113.97584 | 33960 ft | 415 kts | 237° |
| 2026-04-25 17:06 | 43.04781 | -114.04007 | 33951 ft | 414 kts | 237° |
| 2026-04-25 17:06 | 43.01459 | -114.10419 | 33959 ft | 415 kts | 237° |
| 2026-04-25 17:07 | 42.98114 | -114.16862 | 33955 ft | 414 kts | 237° |
| 2026-04-25 17:07 | 42.94795 | -114.23243 | 33964 ft | 414 kts | 238° |
| 2026-04-25 17:08 | 42.91461 | -114.29641 | 33957 ft | 413 kts | 238° |
| 2026-04-25 17:08 | 42.88125 | -114.36029 | 33960 ft | 411 kts | 238° |
| 2026-04-25 17:09 | 42.84819 | -114.42344 | 33966 ft | 411 kts | 238° |
| 2026-04-25 17:09 | 42.81490 | -114.48694 | 33969 ft | 411 kts | 238° |
| 2026-04-25 17:10 | 42.78179 | -114.54994 | 33957 ft | 410 kts | 238° |
| 2026-04-25 17:10 | 42.74853 | -114.61307 | 33960 ft | 410 kts | 237° |
| 2026-04-25 17:11 | 42.71537 | -114.67592 | 33971 ft | 410 kts | 237° |
| 2026-04-25 17:11 | 42.68204 | -114.73894 | 33960 ft | 410 kts | 237° |
| 2026-04-25 17:12 | 42.64880 | -114.80160 | 33958 ft | 409 kts | 237° |
| 2026-04-25 17:12 | 42.61636 | -114.86266 | 33953 ft | 409 kts | 237° |
| 2026-04-25 17:13 | 42.58956 | -114.91301 | 33954 ft | 409 kts | 237° |
| 2026-04-25 17:13 | 42.55071 | -114.98588 | 33955 ft | 409 kts | 237° |
| 2026-04-25 17:14 | 42.51722 | -115.04852 | 33951 ft | 409 kts | 237° |
| 2026-04-25 17:14 | 42.48396 | -115.11061 | 33959 ft | 409 kts | 237° |
| 2026-04-25 17:15 | 42.45051 | -115.17292 | 33961 ft | 408 kts | 237° |
| 2026-04-25 17:15 | 42.41699 | -115.23521 | 33962 ft | 408 kts | 237° |
| 2026-04-25 17:16 | 42.38365 | -115.29714 | 33952 ft | 407 kts | 237° |
| 2026-04-25 17:16 | 42.35025 | -115.35897 | 33947 ft | 406 kts | 237° |
| 2026-04-25 17:17 | 42.31710 | -115.42021 | 33956 ft | 405 kts | 237° |
| 2026-04-25 17:17 | 42.28380 | -115.48159 | 33936 ft | 405 kts | 237° |
| 2026-04-25 17:18 | 42.25042 | -115.54301 | 33935 ft | 404 kts | 237° |
| 2026-04-25 17:18 | 42.21712 | -115.60413 | 33933 ft | 403 kts | 238° |
| 2026-04-25 17:19 | 42.18405 | -115.66478 | 33931 ft | 402 kts | 238° |
| 2026-04-25 17:19 | 42.15084 | -115.72554 | 33925 ft | 402 kts | 238° |
| 2026-04-25 17:20 | 42.11760 | -115.78613 | 33921 ft | 401 kts | 237° |
| 2026-04-25 17:20 | 42.08457 | -115.84624 | 33903 ft | 401 kts | 238° |
| 2026-04-25 17:21 | 42.05140 | -115.90658 | 33906 ft | 400 kts | 238° |
| 2026-04-25 17:21 | 42.01827 | -115.96675 | 33893 ft | 400 kts | 238° |
| 2026-04-25 17:22 | 41.98886 | -116.01509 | 33891 ft | 403 kts | 232° |
| 2026-04-25 17:22 | 41.94448 | -116.07945 | 33898 ft | 403 kts | 232° |
| 2026-04-25 17:23 | 41.90602 | -116.13462 | 33893 ft | 403 kts | 232° |
| 2026-04-25 17:23 | 41.86775 | -116.18932 | 33889 ft | 403 kts | 232° |
| 2026-04-25 17:24 | 41.82927 | -116.24425 | 33889 ft | 403 kts | 232° |
| 2026-04-25 17:24 | 41.79191 | -116.29967 | 33869 ft | 400 kts | 235° |
| 2026-04-25 17:25 | 41.77515 | -116.32935 | 33751 ft | 399 kts | 237° |
| 2026-04-25 17:25 | 41.75834 | -116.35896 | 33569 ft | 399 kts | 236° |
| 2026-04-25 17:25 | 41.74102 | -116.38792 | 33290 ft | 396 kts | 237° |
| 2026-04-25 17:25 | 41.72515 | -116.41804 | 32867 ft | 392 kts | 240° |
| 2026-04-25 17:26 | 41.71007 | -116.44770 | 32390 ft | 391 kts | 233° |
| 2026-04-25 17:26 | 41.68912 | -116.47121 | 32244 ft | 396 kts | 220° |
| 2026-04-25 17:26 | 41.66650 | -116.49236 | 32438 ft | 394 kts | 223° |
| 2026-04-25 17:26 | 41.64513 | -116.51516 | 32677 ft | 392 kts | 226° |
| 2026-04-25 17:27 | 41.62490 | -116.53924 | 32426 ft | 385 kts | 228° |
| 2026-04-25 17:27 | 41.60585 | -116.56372 | 32009 ft | 383 kts | 230° |
| 2026-04-25 17:27 | 41.58704 | -116.58897 | 31908 ft | 383 kts | 230° |
| 2026-04-25 17:27 | 41.58071 | -116.59760 | 31902 ft | 383 kts | 231° |
| 2026-04-25 17:28 | 41.53162 | -116.66569 | 31902 ft | 381 kts | 231° |
| 2026-04-25 17:28 | 41.49512 | -116.71671 | 31902 ft | 381 kts | 231° |
| 2026-04-25 17:29 | 41.45861 | -116.76781 | 31903 ft | 380 kts | 231° |
| 2026-04-25 17:29 | 41.42208 | -116.81887 | 31903 ft | 380 kts | 231° |
| 2026-04-25 17:30 | 41.38576 | -116.86960 | 31904 ft | 380 kts | 231° |
| 2026-04-25 17:30 | 41.34918 | -116.92058 | 31902 ft | 379 kts | 231° |
| 2026-04-25 17:31 | 41.31253 | -116.97160 | 31906 ft | 391 kts | 231° |
| 2026-04-25 17:31 | 41.27430 | -117.02475 | 31902 ft | 400 kts | 231° |
| 2026-04-25 17:32 | 41.23583 | -117.07798 | 31900 ft | 400 kts | 231° |
| 2026-04-25 17:32 | 41.19727 | -117.13138 | 31903 ft | 400 kts | 231° |
| 2026-04-25 17:33 | 41.15870 | -117.18464 | 31903 ft | 400 kts | 231° |
| 2026-04-25 17:33 | 41.12009 | -117.23788 | 31904 ft | 400 kts | 231° |
| 2026-04-25 17:34 | 41.08165 | -117.29082 | 31904 ft | 400 kts | 231° |
| 2026-04-25 17:34 | 41.04298 | -117.34392 | 31903 ft | 400 kts | 231° |
| 2026-04-25 17:35 | 41.00436 | -117.39687 | 31898 ft | 400 kts | 231° |
| 2026-04-25 17:35 | 40.96575 | -117.44972 | 31891 ft | 400 kts | 231° |
| 2026-04-25 17:36 | 40.92731 | -117.50230 | 31893 ft | 400 kts | 231° |
| 2026-04-25 17:36 | 40.88860 | -117.55511 | 31894 ft | 399 kts | 231° |
| 2026-04-25 17:37 | 40.84983 | -117.60790 | 31892 ft | 400 kts | 231° |
| 2026-04-25 17:37 | 40.81126 | -117.66030 | 31893 ft | 400 kts | 231° |
| 2026-04-25 17:38 | 40.78528 | -117.69558 | 31894 ft | 400 kts | 231° |
| 2026-04-25 17:38 | 40.73354 | -117.76565 | 31893 ft | 399 kts | 231° |
| 2026-04-25 17:39 | 40.69495 | -117.81784 | 31890 ft | 399 kts | 231° |
| 2026-04-25 17:39 | 40.65595 | -117.87041 | 31895 ft | 399 kts | 231° |
| 2026-04-25 17:40 | 40.61731 | -117.92249 | 31891 ft | 399 kts | 231° |
| 2026-04-25 17:40 | 40.57846 | -117.97474 | 31891 ft | 399 kts | 230° |
| 2026-04-25 17:41 | 40.53950 | -118.02701 | 31892 ft | 400 kts | 230° |
| 2026-04-25 17:41 | 40.50046 | -118.07937 | 31892 ft | 401 kts | 230° |
| 2026-04-25 17:42 | 40.46149 | -118.13155 | 31892 ft | 402 kts | 230° |
| 2026-04-25 17:42 | 40.42230 | -118.18385 | 31895 ft | 401 kts | 230° |
| 2026-04-25 17:43 | 40.38329 | -118.23583 | 31645 ft | 400 kts | 230° |
| 2026-04-25 17:43 | 40.34401 | -118.28808 | 31626 ft | 403 kts | 230° |
| 2026-04-25 17:44 | 40.31121 | -118.33163 | 31628 ft | 403 kts | 230° |
| 2026-04-25 17:44 | 40.27180 | -118.38397 | 31628 ft | 403 kts | 230° |
| 2026-04-25 17:45 | 40.23901 | -118.42739 | 31629 ft | 404 kts | 230° |
| 2026-04-25 17:45 | 40.19296 | -118.48825 | 31631 ft | 404 kts | 230° |
| 2026-04-25 17:46 | 40.15340 | -118.54048 | 31626 ft | 404 kts | 230° |
| 2026-04-25 17:46 | 40.12183 | -118.59896 | 31126 ft | 389 kts | 249° |
| 2026-04-25 17:47 | 40.11394 | -118.63253 | 30243 ft | 384 kts | 256° |
| 2026-04-25 17:47 | 40.10755 | -118.66637 | 29376 ft | 382 kts | 257° |
| 2026-04-25 17:47 | 40.10123 | -118.69997 | 28509 ft | 380 kts | 256° |
| 2026-04-25 17:47 | 40.09478 | -118.73338 | 27574 ft | 379 kts | 256° |
| 2026-04-25 17:48 | 40.08180 | -118.80035 | 25651 ft | 381 kts | 257° |
| 2026-04-25 17:48 | 40.07540 | -118.83340 | 24892 ft | 378 kts | 257° |
| 2026-04-25 17:48 | 40.06900 | -118.86638 | 24363 ft | 370 kts | 257° |
| 2026-04-25 17:49 | 40.06271 | -118.89874 | 23834 ft | 364 kts | 257° |
| 2026-04-25 17:49 | 40.05649 | -118.93072 | 23301 ft | 359 kts | 257° |
| 2026-04-25 17:49 | 40.05039 | -118.96217 | 22774 ft | 355 kts | 257° |
| 2026-04-25 17:49 | 40.04434 | -118.99323 | 22244 ft | 351 kts | 257° |
| 2026-04-25 17:50 | 40.03834 | -119.02392 | 21722 ft | 347 kts | 257° |
| 2026-04-25 17:50 | 40.03250 | -119.05385 | 21199 ft | 343 kts | 257° |
| 2026-04-25 17:50 | 40.02659 | -119.08408 | 20668 ft | 339 kts | 257° |
| 2026-04-25 17:50 | 40.02076 | -119.11378 | 20138 ft | 336 kts | 257° |
| 2026-04-25 17:51 | 40.01503 | -119.14291 | 19624 ft | 333 kts | 257° |
| 2026-04-25 17:51 | 40.00929 | -119.17212 | 19092 ft | 331 kts | 257° |
| 2026-04-25 17:51 | 40.00360 | -119.20106 | 18571 ft | 328 kts | 257° |
| 2026-04-25 17:51 | 39.99794 | -119.22983 | 18037 ft | 327 kts | 257° |
| 2026-04-25 17:52 | 39.99230 | -119.25849 | 17519 ft | 326 kts | 257° |
| 2026-04-25 17:52 | 39.98858 | -119.27736 | 17169 ft | 324 kts | 257° |
| 2026-04-25 17:52 | 39.98107 | -119.31495 | 16466 ft | 321 kts | 256° |
| 2026-04-25 17:52 | 39.97552 | -119.34299 | 16040 ft | 316 kts | 256° |
| 2026-04-25 17:53 | 39.97012 | -119.37022 | 15908 ft | 303 kts | 256° |
| 2026-04-25 17:53 | 39.96486 | -119.39662 | 15893 ft | 300 kts | 256° |
| 2026-04-25 17:53 | 39.95923 | -119.42293 | 15897 ft | 301 kts | 254° |
| 2026-04-25 17:53 | 39.95308 | -119.44899 | 15889 ft | 298 kts | 253° |
| 2026-04-25 17:54 | 39.94694 | -119.47445 | 15678 ft | 290 kts | 253° |
| 2026-04-25 17:54 | 39.94101 | -119.49887 | 15485 ft | 281 kts | 253° |
| 2026-04-25 17:54 | 39.93518 | -119.52292 | 15180 ft | 276 kts | 253° |
| 2026-04-25 17:54 | 39.92942 | -119.54673 | 14822 ft | 274 kts | 253° |
| 2026-04-25 17:55 | 39.92371 | -119.57034 | 14483 ft | 272 kts | 253° |
| 2026-04-25 17:55 | 39.91801 | -119.59384 | 14121 ft | 270 kts | 253° |
| 2026-04-25 17:55 | 39.91244 | -119.61678 | 13774 ft | 268 kts | 253° |
| 2026-04-25 17:55 | 39.90682 | -119.63988 | 13412 ft | 266 kts | 253° |
| 2026-04-25 17:56 | 39.90122 | -119.66294 | 13030 ft | 265 kts | 252° |
| 2026-04-25 17:56 | 39.89517 | -119.68563 | 12656 ft | 264 kts | 244° |
| 2026-04-25 17:56 | 39.88377 | -119.70380 | 12281 ft | 266 kts | 220° |
| 2026-04-25 17:56 | 39.86821 | -119.71695 | 11862 ft | 267 kts | 212° |
| 2026-04-25 17:57 | 39.85203 | -119.72906 | 11437 ft | 267 kts | 212° |
| 2026-04-25 17:57 | 39.83590 | -119.74111 | 11006 ft | 267 kts | 212° |
| 2026-04-25 17:57 | 39.81977 | -119.75320 | 10583 ft | 268 kts | 210° |
| 2026-04-25 17:57 | 39.80882 | -119.76071 | 10291 ft | 267 kts | 208° |
| 2026-04-25 17:58 | 39.78555 | -119.76918 | 9778 ft | 260 kts | 186° |
| 2026-04-25 17:58 | 39.76773 | -119.76924 | 9347 ft | 251 kts | 180° |
| 2026-04-25 17:58 | 39.75050 | -119.76889 | 8949 ft | 243 kts | 180° |
| 2026-04-25 17:58 | 39.73388 | -119.76860 | 8773 ft | 237 kts | 180° |
| 2026-04-25 17:59 | 39.71743 | -119.76855 | 8556 ft | 236 kts | 181° |
| 2026-04-25 17:59 | 39.70107 | -119.76871 | 8274 ft | 234 kts | 181° |
| 2026-04-25 17:59 | 39.68488 | -119.76879 | 7942 ft | 231 kts | 182° |
| 2026-04-25 17:59 | 39.66924 | -119.76881 | 7610 ft | 222 kts | 182° |
| 2026-04-25 18:00 | 39.65408 | -119.76883 | 7292 ft | 213 kts | 182° |
| 2026-04-25 18:00 | 39.63950 | -119.76887 | 7003 ft | 205 kts | 183° |
| 2026-04-25 18:00 | 39.62586 | -119.76890 | 6731 ft | 187 kts | 183° |
| 2026-04-25 18:00 | 39.61350 | -119.76895 | 6496 ft | 169 kts | 182° |
| 2026-04-25 18:01 | 39.60233 | -119.76897 | 6267 ft | 154 kts | 181° |
| 2026-04-25 18:01 | 39.59175 | -119.76896 | 6047 ft | 151 kts | 182° |
| 2026-04-25 18:01 | 39.58127 | -119.76880 | 5853 ft | 150 kts | 181° |
| 2026-04-25 18:01 | 39.57089 | -119.76874 | 5638 ft | 148 kts | 180° |
| 2026-04-25 18:02 | 39.56067 | -119.76891 | 5448 ft | 146 kts | 180° |
| 2026-04-25 18:02 | 39.55062 | -119.76897 | 5270 ft | 145 kts | 179° |
| 2026-04-25 18:02 | 39.54058 | -119.76899 | 5078 ft | 144 kts | 179° |
| 2026-04-25 18:02 | 39.53047 | -119.76903 | 4848 ft | 146 kts | 181° |
| 2026-04-25 18:03 | 39.52045 | -119.76926 | 4634 ft | 143 kts | 180° |
| 2026-04-25 18:03 | 39.51076 | -119.76920 | 4452 ft | 138 kts | 181° |
| 2026-04-25 18:03 | 39.50184 | -119.76927 | 4412 ft | 111 kts | 180° |
| 2026-04-25 18:03 | 39.49582 | -119.76927 | 4417 ft | 53 kts | 180° |
| 2026-04-25 18:04 | 39.49384 | -119.76935 | 4417 ft | 19 kts | 189° |
| 2026-04-25 18:04 | 39.49283 | -119.77004 | 4416 ft | 15 kts | 224° |
| 2026-04-25 18:04 | 39.49256 | -119.77071 | 4414 ft | 7 kts | 260° |
| 2026-04-25 18:04 | 39.49266 | -119.77137 | 4413 ft | 8 kts | 308° |
| 2026-04-25 18:05 | 39.49333 | -119.77156 | 4412 ft | 11 kts | 357° |
| 2026-04-25 18:05 | 39.49409 | -119.77155 | 4413 ft | 10 kts | 1° |
| 2026-04-25 18:05 | 39.49467 | -119.77154 | 4415 ft | 7 kts | 1° |
| 2026-04-25 18:05 | 39.49514 | -119.77153 | 4415 ft | 7 kts | 0° |
| 2026-04-25 18:06 | 39.49563 | -119.77153 | 4415 ft | 8 kts | 0° |
| 2026-04-25 18:06 | 39.49624 | -119.77152 | 4414 ft | 10 kts | 0° |
| 2026-04-25 18:06 | 39.49701 | -119.77153 | 4413 ft | 12 kts | 360° |
| 2026-04-25 18:06 | 39.49781 | -119.77153 | 4414 ft | 11 kts | 0° |
| 2026-04-25 18:07 | 39.49852 | -119.77153 | 4416 ft | 9 kts | 0° |
| 2026-04-25 18:07 | 39.49915 | -119.77153 | 4416 ft | 9 kts | 0° |
| 2026-04-25 18:07 | 39.49989 | -119.77154 | 4415 ft | 14 kts | 359° |
| 2026-04-25 18:07 | 39.50096 | -119.77153 | 4414 ft | 14 kts | 0° |
| 2026-04-25 18:08 | 39.50180 | -119.77154 | 4416 ft | 10 kts | 360° |
| 2026-04-25 18:08 | 39.50242 | -119.77154 | 4418 ft | 9 kts | 360° |
| 2026-04-25 18:08 | 39.50312 | -119.77156 | 4418 ft | 12 kts | 358° |
| 2026-04-25 18:08 | 39.50411 | -119.77159 | 4416 ft | 17 kts | 357° |
| 2026-04-25 18:09 | 39.50531 | -119.77159 | 4416 ft | 17 kts | 5° |
| 2026-04-25 18:09 | 39.50650 | -119.77151 | 4418 ft | 17 kts | 1° |
| 2026-04-25 18:09 | 39.50755 | -119.77151 | 4416 ft | 14 kts | 0° |
| 2026-04-25 18:09 | 39.50786 | -119.77150 | 4415 ft | 13 kts | 0° |
| 2026-04-25 18:10 | 39.50916 | -119.77152 | 4415 ft | 9 kts | 359° |
| 2026-04-25 18:10 | 39.50980 | -119.77154 | 4417 ft | 8 kts | 358° |
| 2026-04-25 18:10 | 39.51011 | -119.77186 | 4419 ft | 7 kts | 287° |
| 2026-04-25 18:10 | 39.51016 | -119.77233 | 4416 ft | 0 kts | 272° |
| 2026-04-25 18:11 | 39.51016 | -119.77236 | 4416 ft | 1 kts | 271° |
| 2026-04-25 18:11 | 39.51016 | -119.77238 | 4416 ft | 0 kts | 271° |